Time;durP1;ratioP1;P1;durP2;ratioP2;P2;SDS_P1;SDS_P2;PMS_P1;PMS_P2;Temp;Humidity;BMP_temperature;BMP_pressure;BME280_temperature;BME280_humidity;BME280_pressure;Samples;Min_cycle;Max_cycle;Signal;HPM_P1;HPM_P2
2021/04/09 00:01:05;;;;;;;16.50;6.38;;;6.10;99.90;;;;;;4156793;28;20041;-68
2021/04/09 00:03:06;;;;;;;19.23;5.57;;;6.10;99.90;;;;;;4159484;28;20030;-68
2021/04/09 00:05:09;;;;;;;15.45;5.97;;;6.10;99.90;;;;;;4174670;28;20041;-68
2021/04/09 00:07:11;;;;;;;15.45;5.93;;;6.10;99.90;;;;;;4157231;28;20497;-69
2021/04/09 00:09:12;;;;;;;12.18;6.35;;;6.10;99.90;;;;;;4159703;28;20037;-68
2021/04/09 00:11:13;;;;;;;11.27;5.53;;;6.10;99.90;;;;;;4159571;28;20034;-68
2021/04/09 00:13:14;;;;;;;19.17;6.50;;;6.10;99.90;;;;;;4157841;28;20347;-68
2021/04/09 00:15:15;;;;;;;10.73;5.57;;;6.10;99.90;;;;;;4187302;28;20040;-68
2021/04/09 00:17:15;;;;;;;13.02;6.07;;;6.10;99.90;;;;;;4187890;28;20037;-68
2021/04/09 00:19:19;;;;;;;13.90;6.30;;;6.00;99.90;;;;;;4173882;28;20129;-68
2021/04/09 00:21:20;;;;;;;13.30;5.93;;;6.10;99.90;;;;;;4157953;28;20412;-68
2021/04/09 00:23:20;;;;;;;15.07;6.03;;;6.00;99.90;;;;;;4159318;28;20117;-68
2021/04/09 00:25:22;;;;;;;11.80;5.75;;;6.00;99.90;;;;;;4159016;28;20065;-68
2021/04/09 00:27:22;;;;;;;11.18;5.32;;;6.00;99.90;;;;;;4159497;28;20074;-68
2021/04/09 00:29:23;;;;;;;14.68;6.47;;;6.00;99.90;;;;;;4159185;28;20642;-68
2021/04/09 00:31:23;;;;;;;15.63;5.80;;;6.00;99.90;;;;;;4190677;28;20078;-68
2021/04/09 00:33:24;;;;;;;10.02;5.95;;;6.10;99.90;;;;;;4159127;28;20045;-68
2021/04/09 00:35:25;;;;;;;16.33;6.05;;;6.00;99.90;;;;;;4159425;28;20037;-68
2021/04/09 00:37:25;;;;;;;14.77;5.80;;;6.00;99.90;;;;;;4172922;28;20044;-68
2021/04/09 00:39:26;;;;;;;10.93;5.65;;;6.00;99.90;;;;;;4159188;28;20635;-68
2021/04/09 00:41:28;;;;;;;13.57;6.10;;;6.00;99.90;;;;;;4160261;28;20428;-68
2021/04/09 00:43:28;;;;;;;10.33;5.90;;;6.00;99.90;;;;;;4159406;28;20040;-68
2021/04/09 00:45:29;;;;;;;13.40;5.50;;;6.00;99.90;;;;;;4158143;28;20398;-68
2021/04/09 00:47:30;;;;;;;11.05;5.78;;;6.00;99.90;;;;;;4156574;28;20461;-68
2021/04/09 00:49:30;;;;;;;10.23;5.53;;;6.00;99.90;;;;;;4159628;28;20046;-68
2021/04/09 00:51:32;;;;;;;15.30;6.20;;;6.00;99.90;;;;;;4159598;28;20022;-68
2021/04/09 00:53:33;;;;;;;10.90;5.88;;;6.00;99.90;;;;;;4158363;28;20042;-68
2021/04/09 00:55:35;;;;;;;12.65;5.78;;;6.00;99.90;;;;;;4158482;28;20076;-68
2021/04/09 00:57:36;;;;;;;14.20;6.35;;;6.00;99.90;;;;;;4159386;28;20059;-68
2021/04/09 00:59:37;;;;;;;17.73;5.57;;;6.00;99.90;;;;;;4162584;28;20493;-68
2021/04/09 01:01:37;;;;;;;11.75;5.63;;;6.00;99.90;;;;;;4175466;28;20033;-68
2021/04/09 01:03:39;;;;;;;12.40;5.90;;;6.00;99.90;;;;;;4158700;28;20124;-68
2021/04/09 01:05:41;;;;;;;12.63;6.00;;;6.00;99.90;;;;;;4190236;28;20463;-68
2021/04/09 01:07:43;;;;;;;11.70;5.47;;;6.00;99.90;;;;;;4158947;28;20296;-68
2021/04/09 01:09:43;;;;;;;12.85;5.85;;;6.00;99.90;;;;;;4164962;28;20123;-68
2021/04/09 01:11:44;;;;;;;12.88;5.63;;;6.00;99.90;;;;;;4161195;28;20146;-68
2021/04/09 01:13:46;;;;;;;12.95;5.22;;;6.00;99.90;;;;;;4158523;28;20052;-68
2021/04/09 01:15:46;;;;;;;9.15;4.85;;;6.00;99.90;;;;;;4174001;28;20040;-68
2021/04/09 01:18:07;;;;;;;12.57;5.00;;;6.00;99.90;;;;;;4161688;28;20429;-68
2021/04/09 01:20:49;;;;;;;9.60;5.30;;;6.00;99.90;;;;;;4150646;28;20038;-68
2021/04/09 01:23:03;;;;;;;16.33;5.60;;;6.00;99.90;;;;;;4170637;28;20033;-68
2021/04/09 01:25:22;;;;;;;14.23;5.97;;;5.90;99.90;;;;;;4154159;28;20069;-68
2021/04/09 01:27:50;;;;;;;9.95;5.47;;;5.90;99.90;;;;;;4158982;28;20034;-68
2021/04/09 01:30:30;;;;;;;12.93;5.53;;;5.90;99.90;;;;;;4158307;28;20413;-68
2021/04/09 01:32:31;;;;;;;14.60;5.07;;;5.90;99.90;;;;;;4154651;28;20141;-68
2021/04/09 01:35:06;;;;;;;15.93;5.38;;;5.90;99.90;;;;;;4154947;28;20057;-68
2021/04/09 01:37:28;;;;;;;11.45;5.35;;;5.90;99.90;;;;;;4120911;28;20049;-68
2021/04/09 01:39:56;;;;;;;15.90;6.22;;;5.90;99.90;;;;;;4150696;28;20667;-68
2021/04/09 01:41:59;;;;;;;10.50;5.72;;;5.90;99.90;;;;;;4158517;28;20627;-68
2021/04/09 01:44:02;;;;;;;17.88;6.00;;;5.90;99.90;;;;;;4158041;28;20095;-68
2021/04/09 01:46:04;;;;;;;10.30;5.75;;;5.90;99.90;;;;;;4164273;28;20045;-68
2021/04/09 01:48:08;;;;;;;12.25;5.85;;;5.80;99.90;;;;;;4162571;28;20033;-68
2021/04/09 01:50:12;;;;;;;15.10;5.90;;;5.80;99.90;;;;;;4159537;28;20041;-68
2021/04/09 01:52:14;;;;;;;12.93;5.70;;;5.80;99.90;;;;;;4162192;28;20094;-68
2021/04/09 01:54:17;;;;;;;13.63;6.50;;;5.80;99.90;;;;;;4151778;28;20110;-68
2021/04/09 01:56:18;;;;;;;;;;;5.80;99.90;;;;;;4158765;28;20272;-68
2021/04/09 01:58:20;;;;;;;10.45;5.60;;;5.80;99.90;;;;;;4158743;28;19939;-68
2021/04/09 02:00:24;;;;;;;9.85;5.13;;;5.80;99.90;;;;;;4158904;28;20068;-68
2021/04/09 02:02:25;;;;;;;10.57;5.90;;;5.80;99.90;;;;;;4157873;28;20115;-68
2021/04/09 02:04:27;;;;;;;9.77;5.63;;;5.80;99.90;;;;;;4160265;28;20113;-68
2021/04/09 02:06:29;;;;;;;13.65;5.65;;;5.80;99.90;;;;;;4164385;28;20064;-68
2021/04/09 02:08:31;;;;;;;12.80;6.07;;;5.80;99.90;;;;;;4160771;28;20052;-68
2021/04/09 02:10:32;;;;;;;12.00;5.40;;;5.80;99.90;;;;;;4178099;28;20426;-68
2021/04/09 02:12:34;;;;;;;14.20;6.10;;;5.70;99.90;;;;;;4161788;28;20042;-68
2021/04/09 02:14:36;;;;;;;16.10;5.50;;;5.70;99.90;;;;;;4163194;28;20052;-68
2021/04/09 02:16:37;;;;;;;10.75;5.57;;;5.70;99.90;;;;;;4163551;28;20041;-68
2021/04/09 02:18:39;;;;;;;12.25;6.75;;;5.70;99.90;;;;;;4162063;28;20034;-68
2021/04/09 02:20:39;;;;;;;9.02;5.00;;;5.70;99.90;;;;;;4161704;28;20041;-68
2021/04/09 02:22:41;;;;;;;10.48;5.22;;;5.70;99.90;;;;;;4176018;28;20560;-68
2021/04/09 02:24:42;;;;;;;15.63;6.55;;;5.70;99.90;;;;;;4161524;28;20048;-68
2021/04/09 02:26:43;;;;;;;16.27;6.53;;;5.70;99.90;;;;;;4161251;28;20037;-68
2021/04/09 02:28:45;;;;;;;11.85;5.57;;;5.70;99.90;;;;;;4161274;28;20026;-68
2021/04/09 02:31:02;;;;;;;11.32;5.63;;;5.60;99.90;;;;;;4176677;28;20771;-68
2021/04/09 02:33:03;;;;;;;12.40;5.70;;;5.60;99.90;;;;;;4162645;28;20057;-68
2021/04/09 02:35:07;;;;;;;10.75;5.35;;;5.60;99.90;;;;;;4159562;28;20098;-68
2021/04/09 02:37:08;;;;;;;12.30;5.38;;;5.60;99.90;;;;;;4161458;28;20133;-68
2021/04/09 02:39:14;;;;;;;9.85;5.50;;;5.50;99.90;;;;;;4156304;28;20638;-68
2021/04/09 02:41:16;;;;;;;18.95;6.45;;;5.50;99.90;;;;;;4161069;28;20033;-68
2021/04/09 02:43:16;;;;;;;11.97;5.90;;;5.60;99.90;;;;;;4161818;28;20041;-68
2021/04/09 02:45:19;;;;;;;10.85;5.90;;;5.60;99.90;;;;;;4160845;28;20053;-68
2021/04/09 02:47:24;;;;;;;10.63;5.05;;;5.60;99.90;;;;;;4178424;28;20041;-68
2021/04/09 02:49:30;;;;;;;13.80;5.65;;;5.60;99.90;;;;;;4168428;28;20086;-68
2021/04/09 02:51:33;;;;;;;13.40;5.60;;;5.60;99.90;;;;;;4161073;28;20037;-68
2021/04/09 02:53:38;;;;;;;14.05;5.70;;;5.60;99.90;;;;;;4164074;28;20592;-68
2021/04/09 02:55:42;;;;;;;11.68;6.00;;;5.60;99.90;;;;;;4160051;28;20084;-68
2021/04/09 02:57:45;;;;;;;14.40;5.90;;;5.60;99.90;;;;;;4174433;28;20052;-68
2021/04/09 02:59:47;;;;;;;14.75;5.70;;;5.60;99.90;;;;;;4161331;28;20045;-68
2021/04/09 03:01:49;;;;;;;12.27;6.40;;;5.60;99.90;;;;;;4173545;28;20062;-68
2021/04/09 03:03:54;;;;;;;12.23;6.40;;;5.60;99.90;;;;;;4160129;28;20052;-68
2021/04/09 03:05:55;;;;;;;15.02;6.40;;;5.50;99.90;;;;;;4158006;28;20172;-68
2021/04/09 03:07:58;;;;;;;11.43;6.00;;;5.50;99.90;;;;;;4160679;28;20118;-68
2021/04/09 03:09:59;;;;;;;14.10;6.07;;;5.40;99.90;;;;;;4161230;28;20088;-67
2021/04/09 03:12:00;;;;;;;14.85;6.75;;;5.50;99.90;;;;;;4160662;28;20768;-67
2021/04/09 03:14:02;;;;;;;10.15;5.43;;;5.40;99.90;;;;;;4168723;28;20079;-68
2021/04/09 03:16:05;;;;;;;13.07;6.00;;;5.40;99.90;;;;;;4161890;28;20037;-68
2021/04/09 03:18:09;;;;;;;12.18;5.75;;;5.50;99.90;;;;;;4160619;28;20045;-67
2021/04/09 03:20:10;;;;;;;12.15;5.55;;;5.50;99.90;;;;;;4156902;28;20038;-68
2021/04/09 03:22:12;;;;;;;13.20;5.97;;;5.40;99.90;;;;;;4159242;28;20044;-67
2021/04/09 03:24:13;;;;;;;14.25;6.53;;;5.40;99.90;;;;;;4160824;28;20505;-68
2021/04/09 03:26:13;;;;;;;12.45;6.30;;;5.40;99.90;;;;;;4160348;28;20037;-67
2021/04/09 03:28:14;;;;;;;12.57;6.10;;;5.50;99.90;;;;;;4160895;28;20041;-67
2021/04/09 03:30:18;;;;;;;15.43;6.70;;;5.40;99.90;;;;;;4178635;28;20106;-68
2021/04/09 03:32:19;;;;;;;14.50;6.50;;;5.50;99.90;;;;;;4159968;28;20029;-68
2021/04/09 03:34:19;;;;;;;18.55;6.60;;;5.40;99.90;;;;;;4154433;28;20037;-67
2021/04/09 03:36:20;;;;;;;13.00;6.32;;;5.40;99.90;;;;;;4156883;28;20079;-68
2021/04/09 03:38:21;;;;;;;14.18;5.50;;;5.40;99.90;;;;;;4160540;28;20433;-68
2021/04/09 03:40:23;;;;;;;11.40;6.30;;;5.40;99.90;;;;;;4160191;28;20057;-67
2021/04/09 03:42:24;;;;;;;11.77;6.55;;;5.40;99.90;;;;;;4175581;28;20044;-68
2021/04/09 03:44:25;;;;;;;11.77;6.18;;;5.40;99.90;;;;;;4163963;28;20477;-67
2021/04/09 03:46:25;;;;;;;12.88;6.25;;;5.30;99.90;;;;;;4158633;28;20447;-67
2021/04/09 03:48:26;;;;;;;10.45;5.63;;;5.30;99.90;;;;;;4160246;28;20367;-67
2021/04/09 03:50:27;;;;;;;12.82;5.53;;;5.30;99.90;;;;;;4161030;28;20137;-67
2021/04/09 03:52:27;;;;;;;13.52;7.07;;;5.30;99.90;;;;;;4160485;28;20517;-68
2021/04/09 03:54:28;;;;;;;11.98;6.38;;;5.30;99.90;;;;;;4160101;28;20091;-67
2021/04/09 03:56:29;;;;;;;10.07;5.70;;;5.30;99.90;;;;;;4153579;28;20486;-67
2021/04/09 03:58:30;;;;;;;13.68;5.65;;;5.30;99.90;;;;;;4167483;28;20805;-68
2021/04/09 04:00:30;;;;;;;10.38;6.43;;;5.30;99.90;;;;;;4162221;28;20034;-67
2021/04/09 04:02:31;;;;;;;12.02;6.35;;;5.30;99.90;;;;;;4190629;28;20120;-68
2021/04/09 04:04:32;;;;;;;14.02;6.75;;;5.30;99.90;;;;;;4166278;28;20037;-67
2021/04/09 04:06:32;;;;;;;10.77;6.13;;;5.30;99.90;;;;;;4160313;28;20037;-68
2021/04/09 04:08:33;;;;;;;11.13;6.05;;;5.30;99.90;;;;;;4159640;28;20064;-68
2021/04/09 04:10:34;;;;;;;13.73;6.93;;;5.30;99.90;;;;;;4166519;28;20065;-68
2021/04/09 04:12:34;;;;;;;13.05;6.20;;;5.30;99.90;;;;;;4164553;28;20049;-68
2021/04/09 04:14:35;;;;;;;11.70;6.63;;;5.30;99.90;;;;;;4162969;28;20117;-68
2021/04/09 04:16:35;;;;;;;14.32;6.25;;;5.30;99.90;;;;;;4158591;28;20030;-68
2021/04/09 04:18:36;;;;;;;14.05;6.53;;;5.30;99.90;;;;;;4159821;28;20045;-67
2021/04/09 04:20:37;;;;;;;11.40;7.03;;;5.30;99.90;;;;;;4155264;28;20042;-68
2021/04/09 04:22:37;;;;;;;15.23;7.15;;;5.30;99.90;;;;;;4159707;28;20048;-67
2021/04/09 04:24:38;;;;;;;14.65;6.80;;;5.30;99.90;;;;;;4159922;28;20038;-67
2021/04/09 04:26:39;;;;;;;14.80;6.45;;;5.20;99.90;;;;;;4159126;28;20429;-67
2021/04/09 04:28:39;;;;;;;13.32;6.75;;;5.30;99.90;;;;;;4159036;28;20034;-68
2021/04/09 04:30:41;;;;;;;15.52;6.90;;;5.30;99.90;;;;;;4158464;28;20136;-67
2021/04/09 04:32:42;;;;;;;18.15;6.82;;;5.30;99.90;;;;;;4158112;28;20120;-67
2021/04/09 04:34:42;;;;;;;17.00;7.55;;;5.20;99.90;;;;;;4161914;28;20096;-68
2021/04/09 04:36:43;;;;;;;13.73;6.35;;;5.30;99.90;;;;;;4158180;28;20045;-68
2021/04/09 04:38:44;;;;;;;10.90;6.65;;;5.20;99.90;;;;;;4159276;28;20042;-68
2021/04/09 04:40:45;;;;;;;12.35;6.15;;;5.30;99.90;;;;;;4159637;28;20402;-67
2021/04/09 04:42:45;;;;;;;12.02;5.93;;;5.30;99.90;;;;;;4163168;28;20056;-68
2021/04/09 04:44:46;;;;;;;14.38;6.82;;;5.30;99.90;;;;;;4158083;28;20041;-68
2021/04/09 04:46:47;;;;;;;13.98;7.00;;;5.30;99.90;;;;;;4158280;28;20112;-68
2021/04/09 04:48:47;;;;;;;11.48;6.30;;;5.30;99.90;;;;;;4187022;28;20048;-68
2021/04/09 04:50:48;;;;;;;11.80;6.72;;;5.30;99.90;;;;;;4159439;28;20033;-68
2021/04/09 04:52:49;;;;;;;9.88;6.13;;;5.40;99.90;;;;;;4158860;28;20131;-68
2021/04/09 04:54:49;;;;;;;12.15;6.82;;;5.30;99.90;;;;;;4164423;28;20025;-67
2021/04/09 04:56:50;;;;;;;16.67;6.78;;;5.40;99.90;;;;;;4159237;28;20026;-67
2021/04/09 04:58:51;;;;;;;13.52;6.90;;;5.40;99.90;;;;;;4159897;28;20052;-68
2021/04/09 05:00:51;;;;;;;16.23;7.13;;;5.30;99.90;;;;;;4172895;28;20063;-67
2021/04/09 05:02:53;;;;;;;15.85;6.93;;;5.30;99.90;;;;;;4158510;28;20045;-68
2021/04/09 05:04:53;;;;;;;14.82;6.88;;;5.30;99.90;;;;;;4168830;28;20494;-68
2021/04/09 05:06:54;;;;;;;14.02;7.07;;;5.30;99.90;;;;;;4158277;28;20068;-68
2021/04/09 05:08:54;;;;;;;13.07;6.82;;;5.30;99.90;;;;;;4181636;28;20090;-68
2021/04/09 05:10:55;;;;;;;13.50;7.40;;;5.30;99.90;;;;;;4166604;28;20036;-68
2021/04/09 05:12:56;;;;;;;13.77;6.95;;;5.30;99.90;;;;;;4159664;28;20025;-68
2021/04/09 05:14:56;;;;;;;15.65;8.13;;;5.30;99.90;;;;;;4159189;28;20033;-68
2021/04/09 05:16:57;;;;;;;11.43;6.68;;;5.30;99.90;;;;;;4180281;28;20036;-68
2021/04/09 05:18:57;;;;;;;13.20;6.88;;;5.30;99.90;;;;;;4188249;28;20156;-68
2021/04/09 05:20:58;;;;;;;11.80;6.95;;;5.30;99.90;;;;;;4159000;28;20060;-68
2021/04/09 05:22:59;;;;;;;13.13;7.00;;;5.30;99.90;;;;;;4146742;28;20060;-68
2021/04/09 05:24:59;;;;;;;15.18;7.05;;;5.30;99.90;;;;;;4157281;28;20466;-68
2021/04/09 05:27:02;;;;;;;17.10;7.10;;;5.30;99.90;;;;;;4158655;28;20029;-68
2021/04/09 05:29:02;;;;;;;14.48;7.43;;;5.30;99.90;;;;;;4158298;28;20711;-68
2021/04/09 05:31:03;;;;;;;11.60;6.65;;;5.40;99.90;;;;;;4158696;28;20022;-68
2021/04/09 05:33:03;;;;;;;14.48;6.57;;;5.30;99.90;;;;;;4156655;28;20120;-68
2021/04/09 05:35:04;;;;;;;12.80;7.13;;;5.40;99.90;;;;;;4137248;28;20041;-68
2021/04/09 05:37:06;;;;;;;18.13;7.82;;;5.30;99.90;;;;;;4136774;28;20037;-68
2021/04/09 05:39:06;;;;;;;10.68;6.25;;;5.40;99.90;;;;;;4158780;28;20026;-68
2021/04/09 05:41:07;;;;;;;11.68;6.22;;;5.40;99.90;;;;;;4156198;28;20030;-68
2021/04/09 05:43:08;;;;;;;9.90;6.32;;;5.40;99.90;;;;;;4155557;28;20120;-68
2021/04/09 05:45:09;;;;;;;12.88;6.95;;;5.50;99.90;;;;;;4160599;28;20486;-68
2021/04/09 05:47:10;;;;;;;11.23;6.90;;;5.50;99.90;;;;;;4174391;28;20055;-68
2021/04/09 05:49:11;;;;;;;11.00;6.55;;;5.50;99.90;;;;;;4159163;28;20063;-68
2021/04/09 05:51:12;;;;;;;14.32;7.10;;;5.50;99.90;;;;;;4159897;28;20067;-68
2021/04/09 05:53:15;;;;;;;14.90;7.20;;;5.50;99.90;;;;;;4158642;28;20068;-68
2021/04/09 05:55:16;;;;;;;14.55;8.20;;;5.50;99.90;;;;;;4159464;28;20033;-68
2021/04/09 05:57:17;;;;;;;14.25;7.63;;;5.50;99.90;;;;;;4160596;28;20099;-68
2021/04/09 05:59:17;;;;;;;14.20;7.78;;;5.50;99.90;;;;;;4155602;28;20037;-68
2021/04/09 06:01:18;;;;;;;12.98;7.72;;;5.50;99.90;;;;;;4159188;28;21708;-68
2021/04/09 06:03:18;;;;;;;12.48;7.55;;;5.60;99.90;;;;;;4156944;28;20552;-68
2021/04/09 06:05:19;;;;;;;14.93;7.88;;;5.60;99.90;;;;;;4154899;28;20068;-68
2021/04/09 06:07:20;;;;;;;14.90;8.45;;;5.60;99.90;;;;;;4158052;28;20048;-68
2021/04/09 06:09:22;;;;;;;11.57;7.30;;;5.60;99.90;;;;;;4157853;28;20432;-68
2021/04/09 06:11:23;;;;;;;14.75;8.13;;;5.60;99.90;;;;;;4157129;28;20171;-68
2021/04/09 06:13:24;;;;;;;11.52;7.40;;;5.60;99.90;;;;;;4158424;28;20072;-68
2021/04/09 06:15:25;;;;;;;14.07;7.50;;;5.70;99.90;;;;;;4158051;28;20021;-68
2021/04/09 06:17:26;;;;;;;13.50;8.00;;;5.70;99.90;;;;;;4166539;28;20118;-68
2021/04/09 06:19:26;;;;;;;14.57;8.13;;;5.70;99.90;;;;;;4156844;28;20037;-68
2021/04/09 06:21:28;;;;;;;14.65;7.90;;;5.80;99.90;;;;;;4171722;28;20028;-68
2021/04/09 06:23:29;;;;;;;13.82;7.75;;;5.80;99.90;;;;;;4158347;28;20037;-68
2021/04/09 06:25:30;;;;;;;14.27;7.88;;;5.80;99.90;;;;;;4158236;28;20049;-68
2021/04/09 06:27:30;;;;;;;15.32;8.13;;;5.80;99.90;;;;;;4159713;28;20405;-68
2021/04/09 06:29:31;;;;;;;12.60;6.88;;;5.80;99.90;;;;;;4157029;28;20033;-68
2021/04/09 06:31:31;;;;;;;13.02;7.70;;;5.80;99.90;;;;;;4158560;28;20037;-68
2021/04/09 06:33:33;;;;;;;12.63;7.32;;;5.90;99.90;;;;;;4159707;28;20047;-68
2021/04/09 06:35:34;;;;;;;12.18;7.18;;;6.00;99.90;;;;;;4169961;28;20037;-68
2021/04/09 06:37:35;;;;;;;12.07;6.63;;;6.00;99.90;;;;;;4157961;28;20129;-68
2021/04/09 06:39:35;;;;;;;16.45;7.88;;;6.10;99.90;;;;;;4158184;28;20092;-69
2021/04/09 06:41:38;;;;;;;13.88;7.65;;;6.10;99.90;;;;;;4156442;28;20108;-69
2021/04/09 06:43:39;;;;;;;;;;;6.10;99.90;;;;;;4159856;28;20440;-69
2021/04/09 06:45:39;;;;;;;13.73;7.93;;;6.20;99.90;;;;;;4159122;28;19963;-69
2021/04/09 06:47:40;;;;;;;15.75;8.25;;;6.20;99.90;;;;;;4158265;28;20038;-69
2021/04/09 06:49:41;;;;;;;15.10;8.50;;;6.30;99.90;;;;;;4156864;28;20113;-69
2021/04/09 06:51:48;;;;;;;14.57;7.65;;;6.30;99.90;;;;;;4160692;28;20117;-69
2021/04/09 06:53:49;;;;;;;14.00;6.85;;;6.40;99.90;;;;;;4159838;28;20043;-69
2021/04/09 06:55:50;;;;;;;12.65;7.15;;;6.40;99.90;;;;;;4161835;28;20091;-69
2021/04/09 06:57:54;;;;;;;13.88;7.97;;;6.50;99.90;;;;;;4159171;28;20554;-69
2021/04/09 07:00:01;;;;;;;11.50;7.10;;;6.50;99.90;;;;;;4160285;28;20125;-69
2021/04/09 07:02:03;;;;;;;11.07;6.93;;;6.60;99.90;;;;;;4159920;28;20041;-69
2021/04/09 07:04:04;;;;;;;13.80;7.85;;;6.60;99.90;;;;;;4162945;28;20043;-69
2021/04/09 07:06:05;;;;;;;14.15;7.68;;;6.70;99.90;;;;;;4163855;28;20518;-69
2021/04/09 07:08:05;;;;;;;15.48;7.70;;;6.80;99.90;;;;;;4165420;28;20036;-67
2021/04/09 07:10:07;;;;;;;11.32;6.72;;;6.80;99.90;;;;;;4157741;28;20513;-67
2021/04/09 07:12:24;;;;;;;14.53;7.27;;;6.90;99.90;;;;;;4158842;28;20030;-67
2021/04/09 07:14:52;;;;;;;11.00;6.93;;;7.00;99.90;;;;;;4160655;28;20120;-67
2021/04/09 07:17:03;;;;;;;11.85;6.68;;;7.10;99.90;;;;;;4187124;28;20455;-67
2021/04/09 07:19:04;;;;;;;12.98;7.80;;;7.10;99.90;;;;;;4158836;28;20046;-67
2021/04/09 07:21:22;;;;;;;10.82;6.50;;;7.30;99.90;;;;;;4161326;28;20436;-67
2021/04/09 07:23:23;;;;;;;16.83;7.47;;;7.40;99.90;;;;;;4164531;28;20067;-67
2021/04/09 07:25:30;;;;;;;14.13;7.03;;;7.50;99.90;;;;;;4160797;28;20124;-67
2021/04/09 07:27:30;;;;;;;13.98;7.15;;;7.60;99.90;;;;;;4159210;28;20128;-68
2021/04/09 07:29:31;;;;;;;16.38;7.13;;;7.60;99.90;;;;;;4160081;28;20033;-66
2021/04/09 07:31:33;;;;;;;12.20;7.32;;;7.70;99.90;;;;;;4158854;28;20055;-67
2021/04/09 07:33:33;;;;;;;16.23;6.88;;;7.80;99.90;;;;;;4160726;28;20478;-67
2021/04/09 07:35:50;;;;;;;14.43;6.97;;;7.90;99.90;;;;;;4161120;28;20037;-67
2021/04/09 07:37:56;;;;;;;13.32;6.95;;;7.90;99.90;;;;;;4157452;28;20061;-67
2021/04/09 07:40:04;;;;;;;13.30;6.93;;;8.00;99.90;;;;;;4158273;28;20037;-67
2021/04/09 07:42:07;;;;;;;14.23;7.22;;;8.10;99.90;;;;;;4160442;28;20025;-67
2021/04/09 07:44:14;;;;;;;;;;;8.10;99.90;;;;;;4136069;28;20030;-67
2021/04/09 07:46:23;;;;;;;11.63;6.68;;;8.20;99.90;;;;;;4158193;28;20320;-67
2021/04/09 07:48:42;;;;;;;13.80;7.28;;;8.30;99.90;;;;;;4159794;28;20121;-67
2021/04/09 07:50:45;;;;;;;13.00;6.95;;;8.40;99.90;;;;;;4176746;28;20052;-67
2021/04/09 07:52:49;;;;;;;15.13;7.05;;;8.40;99.90;;;;;;4142106;28;20042;-67
2021/04/09 07:54:49;;;;;;;12.07;6.43;;;8.50;99.90;;;;;;4159464;28;20049;-67
2021/04/09 07:56:50;;;;;;;15.13;7.70;;;8.60;99.90;;;;;;4161429;28;20033;-67
2021/04/09 07:58:55;;;;;;;13.10;7.15;;;8.60;99.90;;;;;;4157859;28;20397;-67
2021/04/09 08:00:56;;;;;;;12.75;7.43;;;8.70;99.90;;;;;;4161003;28;20508;-67
2021/04/09 08:02:57;;;;;;;11.93;6.90;;;8.80;99.90;;;;;;4143595;28;20065;-67
2021/04/09 08:04:58;;;;;;;13.60;6.82;;;8.80;99.90;;;;;;4158757;28;20026;-67
2021/04/09 08:06:59;;;;;;;13.23;7.20;;;8.90;99.90;;;;;;4157521;28;20052;-67
2021/04/09 08:09:00;;;;;;;13.80;6.65;;;9.00;99.90;;;;;;4158369;28;20037;-67
2021/04/09 08:11:21;;;;;;;14.40;6.50;;;9.10;99.90;;;;;;4171536;28;20029;-67
2021/04/09 08:13:21;;;;;;;10.30;6.20;;;9.20;99.90;;;;;;4154206;28;20606;-67
2021/04/09 08:15:24;;;;;;;10.63;5.75;;;9.30;99.90;;;;;;4151936;28;20038;-67
2021/04/09 08:17:26;;;;;;;12.63;6.88;;;9.40;99.90;;;;;;4139732;28;20034;-67
2021/04/09 08:19:27;;;;;;;11.40;6.20;;;9.50;99.90;;;;;;4158359;28;20461;-67
2021/04/09 08:21:29;;;;;;;13.98;7.22;;;9.60;99.90;;;;;;4158611;28;20037;-67
2021/04/09 08:23:30;;;;;;;11.52;6.72;;;9.60;99.90;;;;;;4158465;28;20598;-67
2021/04/09 08:25:32;;;;;;;13.50;6.93;;;9.70;99.90;;;;;;4173194;28;20872;-67
2021/04/09 08:27:34;;;;;;;11.07;6.05;;;9.70;99.90;;;;;;4154246;28;20100;-67
2021/04/09 08:29:36;;;;;;;16.02;6.70;;;9.80;99.90;;;;;;4155061;28;20038;-67
2021/04/09 08:31:38;;;;;;;10.88;6.53;;;9.90;99.90;;;;;;4153953;28;20091;-67
2021/04/09 08:33:39;;;;;;;11.45;6.07;;;9.90;99.90;;;;;;4156194;28;20045;-67
2021/04/09 08:35:43;;;;;;;12.45;6.22;;;10.00;99.90;;;;;;4154724;28;20666;-67
2021/04/09 08:37:44;;;;;;;9.10;5.38;;;10.10;99.90;;;;;;4156962;28;20037;-67
2021/04/09 08:39:45;;;;;;;15.68;6.57;;;10.10;99.90;;;;;;4151478;28;20045;-67
2021/04/09 08:41:50;;;;;;;13.05;6.90;;;10.20;99.90;;;;;;4157694;28;20495;-67
2021/04/09 08:43:52;;;;;;;11.15;6.13;;;10.30;99.90;;;;;;4153088;28;20061;-67
2021/04/09 08:45:53;;;;;;;12.50;7.03;;;10.40;99.90;;;;;;4155832;28;20038;-67
2021/04/09 08:47:56;;;;;;;11.90;5.97;;;10.40;99.90;;;;;;4172379;28;20037;-69
2021/04/09 08:50:04;;;;;;;10.88;5.55;;;10.60;99.90;;;;;;4157079;28;20098;-68
2021/04/09 08:52:06;;;;;;;10.57;6.10;;;10.60;99.90;;;;;;4158788;28;20389;-67
2021/04/09 08:54:20;;;;;;;11.18;5.43;;;10.70;99.90;;;;;;4158872;28;20104;-67
2021/04/09 08:56:39;;;;;;;11.85;5.80;;;10.80;99.90;;;;;;4159523;28;20048;-67
2021/04/09 08:58:44;;;;;;;11.13;5.25;;;10.90;99.90;;;;;;4184890;28;20032;-67
2021/04/09 09:00:47;;;;;;;9.60;5.60;;;11.00;99.90;;;;;;4158534;28;20409;-67
2021/04/09 09:02:52;;;;;;;9.48;5.43;;;11.00;99.90;;;;;;4158492;28;20087;-67
2021/04/09 09:05:09;;;;;;;14.75;5.25;;;11.00;99.90;;;;;;4188857;28;20053;-67
2021/04/09 09:07:10;;;;;;;13.10;5.93;;;11.10;99.90;;;;;;4155859;28;20063;-67
2021/04/09 09:09:25;;;;;;;7.35;5.40;;;11.30;99.90;;;;;;4157401;28;20497;-67
2021/04/09 09:11:55;;;;;;;9.70;6.03;;;11.40;99.90;;;;;;4154919;28;20051;-67
2021/04/09 09:13:55;;;;;;;9.02;5.10;;;11.50;99.90;;;;;;4155935;28;20052;-67
2021/04/09 09:15:58;;;;;;;11.52;5.22;;;11.60;99.90;;;;;;4156731;28;20095;-67
2021/04/09 09:17:59;;;;;;;;;;;11.70;99.90;;;;;;4158818;28;20374;-67
2021/04/09 09:20:02;;;;;;;9.35;4.85;;;11.80;99.90;;;;;;4158229;28;20011;-67
2021/04/09 09:22:14;;;;;;;11.07;5.28;;;11.80;99.90;;;;;;4156531;28;20037;-68
2021/04/09 09:24:22;;;;;;;12.57;4.70;;;11.80;99.90;;;;;;4155947;28;20037;-68
2021/04/09 09:26:32;;;;;;;12.23;5.03;;;11.80;99.90;;;;;;4153795;28;20420;-67
2021/04/09 09:28:33;;;;;;;8.90;4.72;;;11.90;99.90;;;;;;4157808;28;20579;-68
2021/04/09 09:30:41;;;;;;;8.75;4.95;;;12.00;99.90;;;;;;4157117;28;20041;-68
2021/04/09 09:32:41;;;;;;;10.10;4.88;;;12.00;99.90;;;;;;4156751;28;20846;-67
2021/04/09 09:34:44;;;;;;;7.75;4.63;;;12.10;99.90;;;;;;4173363;28;20448;-67
2021/04/09 09:36:58;;;;;;;7.30;4.53;;;12.20;99.90;;;;;;4157637;28;20034;-68
2021/04/09 09:38:59;;;;;;;7.05;4.45;;;12.20;99.90;;;;;;4154253;28;20041;-67
2021/04/09 09:41:00;;;;;;;8.75;5.07;;;12.30;99.90;;;;;;4157983;28;20418;-67
2021/04/09 09:43:01;;;;;;;11.65;4.43;;;12.30;99.90;;;;;;4155390;28;20069;-67
2021/04/09 09:45:31;;;;;;;8.27;4.55;;;12.40;99.90;;;;;;4156028;28;20120;-67
2021/04/09 09:47:41;;;;;;;7.85;4.07;;;12.50;99.90;;;;;;4153310;28;20040;-66
2021/04/09 09:50:11;;;;;;;7.18;4.38;;;12.50;99.90;;;;;;4157639;28;20052;-66
2021/04/09 09:52:24;;;;;;;14.45;4.35;;;12.50;99.90;;;;;;4154920;28;20034;-66
2021/04/09 09:54:27;;;;;;;10.18;4.38;;;12.50;99.90;;;;;;4156423;28;20040;-66
2021/04/09 09:56:28;;;;;;;8.10;4.50;;;12.60;99.90;;;;;;4155093;28;20049;-66
2021/04/09 09:58:31;;;;;;;8.57;4.93;;;12.60;99.90;;;;;;4153554;28;20132;-66
2021/04/09 10:00:36;;;;;;;8.75;5.00;;;12.60;99.90;;;;;;4155763;28;20033;-66
2021/04/09 10:02:37;;;;;;;9.57;4.70;;;12.70;99.90;;;;;;4157165;28;20064;-66
2021/04/09 10:04:37;;;;;;;9.93;4.53;;;12.80;99.90;;;;;;4155224;28;20038;-66
2021/04/09 10:06:45;;;;;;;10.70;5.45;;;12.80;99.90;;;;;;4157242;28;20053;-66
2021/04/09 10:08:45;;;;;;;8.15;4.55;;;12.80;99.90;;;;;;4157307;28;20045;-67
2021/04/09 10:10:50;;;;;;;9.60;5.35;;;12.80;99.90;;;;;;4157327;28;20059;-67
2021/04/09 10:12:50;;;;;;;12.45;5.20;;;12.90;99.90;;;;;;4156801;28;20056;-67
2021/04/09 10:14:53;;;;;;;9.23;5.07;;;12.90;99.90;;;;;;4157076;28;20033;-67
2021/04/09 10:16:55;;;;;;;8.57;4.72;;;12.90;99.90;;;;;;4170571;28;20065;-66
2021/04/09 10:18:58;;;;;;;8.65;4.95;;;12.90;99.90;;;;;;4146295;28;20049;-66
2021/04/09 10:21:15;;;;;;;8.93;4.80;;;13.00;99.90;;;;;;4167800;28;20060;-66
2021/04/09 10:23:21;;;;;;;11.93;5.05;;;13.10;99.90;;;;;;4154929;28;20141;-69
2021/04/09 10:25:32;;;;;;;8.23;4.90;;;13.10;99.90;;;;;;4156189;28;20070;-66
2021/04/09 10:27:32;;;;;;;12.13;5.72;;;13.10;99.90;;;;;;4159331;28;20167;-66
2021/04/09 10:29:36;;;;;;;9.00;5.82;;;13.10;99.90;;;;;;4158641;28;20581;-66
2021/04/09 10:31:37;;;;;;;12.52;5.72;;;13.10;99.90;;;;;;4153886;28;20459;-66
2021/04/09 10:33:45;;;;;;;7.60;4.63;;;13.10;99.90;;;;;;4158710;28;20041;-66
2021/04/09 10:35:45;;;;;;;10.30;5.13;;;13.10;99.90;;;;;;4156734;28;20079;-66
2021/04/09 10:37:46;;;;;;;8.75;5.15;;;13.10;99.90;;;;;;4175205;28;20037;-66
2021/04/09 10:39:48;;;;;;;8.02;5.43;;;13.10;99.90;;;;;;4156443;28;20038;-66
2021/04/09 10:41:51;;;;;;;8.25;4.75;;;13.10;99.90;;;;;;4158256;28;20041;-66
2021/04/09 10:44:12;;;;;;;9.70;5.03;;;13.10;99.90;;;;;;4159994;28;20096;-66